createdAt,value
2022-11-09T00:00:03.158Z,0.00
2022-11-09T00:00:38.362Z,0.00
2022-11-09T00:01:13.567Z,0.00
2022-11-09T00:01:48.884Z,0.00
2022-11-09T00:02:24.387Z,0.00
2022-11-09T00:02:59.810Z,0.00
2022-11-09T00:03:35.240Z,0.00
2022-11-09T00:04:10.846Z,0.00
2022-11-09T00:04:46.041Z,0.00
2022-11-09T00:05:21.177Z,0.00
2022-11-09T00:05:56.491Z,0.00
2022-11-09T00:06:31.491Z,0.00
2022-11-09T00:07:06.827Z,0.00
2022-11-09T00:07:42.189Z,0.00
2022-11-09T00:08:17.497Z,0.00
2022-11-09T00:08:52.953Z,0.00
2022-11-09T00:09:28.262Z,0.00
2022-11-09T00:10:03.773Z,0.00
2022-11-09T00:10:38.999Z,0.00
2022-11-09T00:11:14.345Z,0.00
2022-11-09T00:11:49.531Z,0.00
2022-11-09T00:12:24.957Z,0.00
2022-11-09T00:13:00.181Z,0.00
2022-11-09T00:13:35.416Z,0.00
2022-11-09T00:14:10.808Z,0.00
2022-11-09T00:14:46.040Z,0.00
2022-11-09T00:15:21.138Z,0.00
2022-11-09T00:15:56.487Z,0.00
2022-11-09T00:16:31.630Z,0.00
2022-11-09T00:17:06.651Z,0.00
2022-11-09T00:17:41.854Z,0.00
2022-11-09T00:18:16.877Z,0.00
2022-11-09T00:18:51.982Z,0.00
2022-11-09T00:19:26.924Z,0.00
2022-11-09T00:20:02.222Z,0.00
2022-11-09T00:20:37.549Z,0.00
2022-11-09T00:21:12.646Z,0.00
2022-11-09T00:21:47.961Z,0.00
2022-11-09T00:22:23.056Z,0.00
2022-11-09T00:22:58.591Z,0.00
2022-11-09T00:23:33.810Z,0.00
2022-11-09T00:24:09.121Z,0.00
2022-11-09T00:24:44.207Z,0.00
2022-11-09T00:25:19.330Z,0.00
2022-11-09T00:25:54.773Z,0.00
2022-11-09T00:26:29.974Z,0.00
2022-11-09T00:27:05.382Z,0.00
2022-11-09T00:27:40.389Z,0.00
2022-11-09T00:28:15.903Z,0.00
2022-11-09T00:28:51.213Z,0.00
2022-11-09T00:29:26.418Z,0.00
2022-11-09T00:30:02.037Z,0.00
2022-11-09T00:30:37.363Z,0.00
2022-11-09T00:31:12.676Z,0.00
2022-11-09T00:31:47.710Z,0.00
2022-11-09T00:32:27.506Z,0.00
2022-11-09T00:32:58.284Z,0.00
2022-11-09T00:33:33.788Z,0.00
2022-11-09T00:34:08.887Z,0.00
2022-11-09T00:34:44.024Z,0.00
2022-11-09T00:35:19.641Z,0.00
2022-11-09T00:35:54.833Z,0.00
2022-11-09T00:36:30.151Z,0.00
2022-11-09T00:37:05.168Z,0.00
2022-11-09T00:37:40.629Z,0.00
2022-11-09T00:38:15.879Z,0.00
2022-11-09T00:38:51.533Z,0.00
2022-11-09T00:39:26.716Z,0.00
2022-11-09T00:40:01.816Z,0.00
2022-11-09T00:40:37.227Z,0.00
2022-11-09T00:41:12.349Z,0.00
2022-11-09T00:41:47.753Z,0.00
2022-11-09T00:42:22.962Z,0.00
2022-11-09T00:42:58.287Z,0.00
2022-11-09T00:43:33.896Z,0.00
2022-11-09T00:44:09.094Z,0.00
2022-11-09T00:44:44.215Z,0.00
2022-11-09T00:45:19.506Z,0.00
2022-11-09T00:45:54.530Z,0.00
2022-11-09T00:46:29.927Z,0.00
2022-11-09T00:47:05.162Z,0.00
2022-11-09T00:47:40.463Z,0.00
2022-11-09T00:48:15.699Z,0.00
2022-11-09T00:48:51.211Z,0.00
2022-11-09T00:49:26.503Z,0.00
2022-11-09T00:50:01.977Z,0.00
2022-11-09T00:50:37.282Z,0.00
2022-11-09T00:51:12.695Z,0.00
2022-11-09T00:51:47.692Z,0.00
2022-11-09T00:52:22.723Z,0.00
2022-11-09T00:52:58.038Z,0.00
2022-11-09T00:53:33.239Z,0.00
2022-11-09T00:54:08.382Z,0.00
2022-11-09T00:54:43.462Z,0.00
2022-11-09T00:55:18.684Z,0.00
2022-11-09T00:55:53.979Z,0.00
2022-11-09T00:56:29.245Z,0.00
2022-11-09T00:57:04.777Z,0.00
2022-11-09T00:57:39.972Z,0.00
2022-11-09T00:58:15.080Z,0.00
2022-11-09T00:58:50.176Z,0.00
2022-11-09T00:59:25.292Z,0.00
2022-11-09T01:00:00.291Z,0.00
2022-11-09T01:00:35.621Z,0.00
2022-11-09T01:01:10.673Z,0.00
2022-11-09T01:01:46.169Z,0.00
2022-11-09T01:02:21.214Z,0.00
2022-11-09T01:02:56.625Z,0.00
2022-11-09T01:03:31.956Z,0.00
2022-11-09T01:04:07.158Z,0.00
2022-11-09T01:04:42.285Z,0.00
2022-11-09T01:05:17.422Z,0.00
2022-11-09T01:05:52.562Z,0.00
2022-11-09T01:06:27.935Z,0.00
2022-11-09T01:07:03.593Z,0.00
2022-11-09T01:07:38.712Z,0.00
2022-11-09T01:08:14.301Z,0.00
2022-11-09T01:08:49.339Z,0.00
2022-11-09T01:09:24.563Z,0.00
2022-11-09T01:09:59.980Z,0.00
2022-11-09T01:10:35.305Z,0.00
2022-11-09T01:11:10.621Z,0.00
2022-11-09T01:11:45.841Z,0.00
2022-11-09T01:12:21.359Z,0.00
2022-11-09T01:12:56.952Z,0.00
2022-11-09T01:13:32.182Z,0.00
2022-11-09T01:14:07.293Z,0.00
2022-11-09T01:14:42.825Z,0.00
2022-11-09T01:15:18.023Z,0.00
2022-11-09T01:15:53.256Z,0.00
2022-11-09T01:16:28.557Z,0.00
2022-11-09T01:17:03.774Z,0.00
2022-11-09T01:17:38.882Z,0.00
2022-11-09T01:18:13.796Z,0.00
2022-11-09T01:18:49.011Z,0.00
2022-11-09T01:19:24.228Z,0.00
2022-11-09T01:19:59.351Z,0.00
2022-11-09T01:20:34.542Z,0.00
2022-11-09T01:21:09.807Z,0.00
2022-11-09T01:21:44.697Z,0.00
2022-11-09T01:22:20.042Z,0.00
2022-11-09T01:22:55.238Z,0.00
2022-11-09T01:23:30.458Z,0.00
2022-11-09T01:24:05.985Z,0.00
2022-11-09T01:24:41.093Z,0.00
2022-11-09T01:25:16.279Z,0.00
2022-11-09T01:25:51.674Z,0.00
2022-11-09T01:26:26.804Z,0.00
2022-11-09T01:27:02.319Z,0.00
2022-11-09T01:27:37.758Z,0.00
2022-11-09T01:28:13.286Z,0.00
2022-11-09T01:28:48.514Z,0.00
2022-11-09T01:29:23.849Z,0.00
2022-11-09T01:29:59.085Z,0.00
2022-11-09T01:30:34.378Z,0.00
2022-11-09T01:31:09.596Z,0.00
2022-11-09T01:31:44.853Z,0.00
2022-11-09T01:32:20.524Z,0.00
2022-11-09T01:32:55.627Z,0.00
2022-11-09T01:33:30.742Z,0.00
2022-11-09T01:34:06.032Z,0.00
2022-11-09T01:34:41.501Z,0.00
2022-11-09T01:35:16.792Z,0.00
2022-11-09T01:35:52.327Z,0.00
2022-11-09T01:36:27.659Z,0.00
2022-11-09T01:37:02.942Z,0.00
2022-11-09T01:37:38.186Z,0.00
2022-11-09T01:38:13.494Z,0.00
2022-11-09T01:38:48.808Z,0.00
2022-11-09T01:39:24.029Z,0.00
2022-11-09T01:39:59.640Z,0.00
2022-11-09T01:40:34.882Z,0.00
2022-11-09T01:41:10.076Z,0.00
2022-11-09T01:41:44.994Z,0.00
2022-11-09T01:42:20.121Z,0.00
2022-11-09T01:42:55.325Z,0.00
2022-11-09T01:43:30.437Z,0.00
2022-11-09T01:44:05.743Z,0.00
2022-11-09T01:44:40.655Z,0.00
2022-11-09T01:45:15.990Z,0.00
2022-11-09T01:45:51.296Z,0.00
2022-11-09T01:46:26.720Z,0.00
2022-11-09T01:47:02.015Z,0.00
2022-11-09T01:47:37.235Z,0.00
2022-11-09T01:48:12.352Z,0.00
2022-11-09T01:48:47.469Z,0.00
2022-11-09T01:49:22.708Z,0.00
2022-11-09T01:49:58.013Z,0.00
2022-11-09T01:50:33.137Z,0.00
2022-11-09T01:51:08.230Z,0.00
2022-11-09T01:51:43.689Z,0.00
2022-11-09T01:52:19.080Z,0.00
2022-11-09T01:52:54.410Z,0.00
2022-11-09T01:53:29.721Z,0.00
2022-11-09T01:54:04.837Z,0.00
2022-11-09T01:54:40.032Z,0.00
2022-11-09T01:55:15.468Z,0.00
2022-11-09T01:55:50.646Z,0.00
2022-11-09T01:56:25.775Z,0.00
2022-11-09T01:57:00.703Z,0.00
2022-11-09T01:57:35.622Z,0.00
2022-11-09T01:58:11.060Z,0.00
2022-11-09T01:58:46.156Z,0.00
2022-11-09T01:59:21.675Z,0.00
2022-11-09T01:59:56.977Z,0.00
2022-11-09T02:00:32.001Z,0.00
2022-11-09T02:01:07.143Z,0.00
2022-11-09T02:01:42.577Z,0.00
2022-11-09T02:02:17.861Z,0.00
2022-11-09T02:02:52.978Z,0.00
2022-11-09T02:03:28.310Z,0.00
2022-11-09T02:04:03.612Z,0.00
2022-11-09T02:04:39.039Z,0.00
2022-11-09T02:05:14.170Z,0.00
2022-11-09T02:05:49.381Z,0.00
2022-11-09T02:06:24.389Z,0.00
2022-11-09T02:06:59.533Z,0.00
2022-11-09T02:07:34.733Z,0.00
2022-11-09T02:08:10.036Z,0.00
2022-11-09T02:08:45.350Z,0.00
2022-11-09T02:09:20.749Z,0.00
2022-11-09T02:09:55.558Z,0.00
2022-11-09T02:10:30.681Z,0.00
2022-11-09T02:11:05.769Z,0.00
2022-11-09T02:11:40.979Z,0.00
2022-11-09T02:12:16.073Z,0.00
2022-11-09T02:12:51.321Z,0.00
2022-11-09T02:13:26.437Z,0.00
2022-11-09T02:14:01.755Z,0.00
2022-11-09T02:14:36.763Z,0.00
2022-11-09T02:15:12.215Z,0.00
2022-11-09T02:15:47.544Z,0.00
2022-11-09T02:16:22.943Z,0.00
2022-11-09T02:16:58.051Z,0.00
2022-11-09T02:17:33.261Z,0.00
2022-11-09T02:18:08.387Z,0.00
2022-11-09T02:18:43.507Z,0.00
2022-11-09T02:19:19.098Z,0.00
2022-11-09T02:19:54.316Z,0.00
2022-11-09T02:20:29.306Z,0.00
2022-11-09T02:21:04.443Z,0.00
2022-11-09T02:21:39.890Z,0.00
2022-11-09T02:22:15.308Z,0.00
2022-11-09T02:22:50.519Z,0.00
2022-11-09T02:23:25.742Z,0.00
2022-11-09T02:24:00.880Z,0.00
2022-11-09T02:24:36.276Z,0.00
2022-11-09T02:25:11.389Z,0.00
2022-11-09T02:25:46.827Z,0.00
2022-11-09T02:26:21.957Z,0.00
2022-11-09T02:26:57.304Z,0.00
2022-11-09T02:27:32.612Z,0.00
2022-11-09T02:28:08.371Z,0.00
2022-11-09T02:28:43.493Z,0.00
2022-11-09T02:29:18.698Z,0.00
2022-11-09T02:29:53.904Z,0.00
2022-11-09T02:30:29.153Z,0.00
2022-11-09T02:31:04.347Z,0.00
2022-11-09T02:31:39.437Z,0.00
2022-11-09T02:32:14.748Z,0.00
2022-11-09T02:32:49.763Z,0.00
2022-11-09T02:33:25.170Z,0.00
2022-11-09T02:34:00.699Z,0.00
2022-11-09T02:34:35.787Z,0.00
2022-11-09T02:35:10.891Z,0.00
2022-11-09T02:35:46.188Z,0.00
2022-11-09T02:36:22.003Z,0.00
2022-11-09T02:36:57.491Z,0.00
2022-11-09T02:37:32.791Z,0.00
2022-11-09T02:38:08.002Z,0.00
2022-11-09T02:38:43.101Z,0.00
2022-11-09T02:39:18.636Z,0.00
2022-11-09T02:39:54.143Z,0.00
2022-11-09T02:40:29.246Z,0.00
2022-11-09T02:41:04.563Z,0.00
2022-11-09T02:41:39.830Z,0.00
2022-11-09T02:42:19.881Z,0.00
2022-11-09T02:42:50.045Z,0.00
2022-11-09T02:43:25.366Z,0.00
2022-11-09T02:44:00.554Z,0.00
2022-11-09T02:44:35.780Z,0.00
2022-11-09T02:45:10.892Z,0.00
2022-11-09T02:45:46.082Z,0.00
2022-11-09T02:46:21.515Z,0.00
2022-11-09T02:46:56.916Z,0.00
2022-11-09T02:47:31.934Z,0.00
2022-11-09T02:48:07.456Z,0.00
2022-11-09T02:48:42.444Z,0.00
2022-11-09T02:49:17.551Z,0.00
2022-11-09T02:49:52.760Z,0.00
2022-11-09T02:50:27.871Z,0.00
2022-11-09T02:51:03.171Z,0.00
2022-11-09T02:51:38.485Z,0.00
2022-11-09T02:52:13.570Z,0.00
2022-11-09T02:52:48.984Z,0.00
2022-11-09T02:53:24.386Z,0.00
2022-11-09T02:53:59.712Z,0.00
2022-11-09T02:54:35.111Z,0.00
2022-11-09T02:55:10.359Z,0.00
2022-11-09T02:55:45.465Z,0.00
2022-11-09T02:56:20.560Z,0.00
2022-11-09T02:56:55.865Z,0.00
2022-11-09T02:57:31.170Z,0.00
2022-11-09T02:58:06.496Z,0.00
2022-11-09T02:58:41.794Z,0.00
2022-11-09T02:59:17.122Z,0.00
2022-11-09T02:59:52.623Z,0.00
2022-11-09T03:00:28.019Z,0.00
2022-11-09T03:01:03.242Z,0.00
2022-11-09T03:01:38.198Z,0.00
2022-11-09T03:02:13.662Z,0.00
2022-11-09T03:02:48.764Z,0.00
2022-11-09T03:03:24.279Z,0.00
2022-11-09T03:03:59.412Z,0.00
2022-11-09T03:04:34.609Z,0.00
2022-11-09T03:05:09.813Z,0.00
2022-11-09T03:05:45.036Z,0.00
2022-11-09T03:06:20.374Z,0.00
2022-11-09T03:06:55.517Z,0.00
2022-11-09T03:07:30.979Z,0.00
2022-11-09T03:08:06.378Z,0.00
2022-11-09T03:08:41.674Z,0.00
2022-11-09T03:09:17.120Z,0.00
2022-11-09T03:09:52.222Z,0.00
2022-11-09T03:10:27.333Z,0.00
2022-11-09T03:11:02.480Z,0.00
2022-11-09T03:11:37.687Z,0.00
2022-11-09T03:12:12.906Z,0.00
2022-11-09T03:12:48.004Z,0.00
2022-11-09T03:13:23.364Z,0.00
2022-11-09T03:13:58.675Z,0.00
2022-11-09T03:14:33.778Z,0.00
2022-11-09T03:15:09.179Z,0.00
2022-11-09T03:15:44.771Z,0.00
2022-11-09T03:16:20.198Z,0.00
2022-11-09T03:16:55.513Z,0.00
2022-11-09T03:17:30.501Z,0.00
2022-11-09T03:18:05.720Z,0.00
2022-11-09T03:18:40.920Z,0.00
2022-11-09T03:19:16.029Z,0.00
2022-11-09T03:19:51.227Z,0.00
2022-11-09T03:20:26.471Z,0.00
2022-11-09T03:21:01.956Z,0.00
2022-11-09T03:21:37.277Z,0.00
2022-11-09T03:22:12.487Z,0.00
2022-11-09T03:22:47.792Z,0.00
2022-11-09T03:23:23.231Z,0.00
2022-11-09T03:23:58.295Z,0.00
2022-11-09T03:24:33.529Z,0.00
2022-11-09T03:25:08.744Z,0.00
2022-11-09T03:25:44.250Z,0.00
2022-11-09T03:26:19.655Z,0.00
2022-11-09T03:26:54.979Z,0.00
2022-11-09T03:27:30.269Z,0.00
2022-11-09T03:28:05.687Z,0.00
2022-11-09T03:28:40.800Z,0.00
2022-11-09T03:29:15.994Z,0.00
2022-11-09T03:29:51.401Z,0.00
2022-11-09T03:30:26.904Z,0.00
2022-11-09T03:31:02.316Z,0.00
2022-11-09T03:31:37.842Z,0.00
2022-11-09T03:32:13.188Z,0.00
2022-11-09T03:32:50.741Z,0.00
2022-11-09T03:33:23.640Z,0.00
2022-11-09T03:33:58.936Z,0.00
2022-11-09T03:34:34.548Z,0.00
2022-11-09T03:35:09.961Z,0.00
2022-11-09T03:35:45.167Z,0.00
2022-11-09T03:36:20.385Z,0.00
2022-11-09T03:36:55.582Z,0.00
2022-11-09T03:37:30.933Z,0.00
2022-11-09T03:38:06.125Z,0.00
2022-11-09T03:38:41.223Z,0.00
2022-11-09T03:39:16.530Z,0.00
2022-11-09T03:39:51.742Z,0.00
2022-11-09T03:40:27.054Z,0.00
2022-11-09T03:41:02.561Z,0.00
2022-11-09T03:41:37.688Z,0.00
2022-11-09T03:42:13.089Z,0.00
2022-11-09T03:42:48.131Z,0.00
2022-11-09T03:43:23.661Z,0.00
2022-11-09T03:43:58.867Z,0.00
2022-11-09T03:44:33.785Z,0.00
2022-11-09T03:45:08.891Z,0.00
2022-11-09T03:45:44.299Z,0.00
2022-11-09T03:46:19.600Z,0.00
2022-11-09T03:46:55.004Z,0.00
2022-11-09T03:47:30.014Z,0.00
2022-11-09T03:48:05.233Z,0.00
2022-11-09T03:48:40.247Z,0.00
2022-11-09T03:49:15.344Z,0.00
2022-11-09T03:49:50.554Z,0.00
2022-11-09T03:50:25.979Z,0.00
2022-11-09T03:51:01.169Z,0.00
2022-11-09T03:51:36.572Z,0.00
2022-11-09T03:52:11.871Z,0.00
2022-11-09T03:52:47.205Z,0.00
2022-11-09T03:53:22.880Z,0.00
2022-11-09T03:53:58.047Z,0.00
2022-11-09T03:54:33.052Z,0.00
2022-11-09T03:55:08.475Z,0.00
2022-11-09T03:55:44.062Z,0.00
2022-11-09T03:56:19.106Z,0.00
2022-11-09T03:56:54.215Z,0.00
2022-11-09T03:57:29.323Z,0.00
2022-11-09T03:58:04.799Z,0.00
2022-11-09T03:58:40.413Z,0.00
2022-11-09T03:59:16.124Z,0.00
2022-11-09T03:59:51.323Z,0.00
2022-11-09T04:00:26.731Z,0.00
2022-11-09T04:01:02.057Z,0.00
2022-11-09T04:01:37.417Z,0.00
2022-11-09T04:02:12.523Z,0.00
2022-11-09T04:02:47.775Z,0.00
2022-11-09T04:03:23.335Z,0.00
2022-11-09T04:03:58.426Z,0.00
2022-11-09T04:04:34.032Z,0.00
2022-11-09T04:05:09.338Z,0.00
2022-11-09T04:05:44.346Z,0.00
2022-11-09T04:06:19.455Z,0.00
2022-11-09T04:06:54.548Z,0.00
2022-11-09T04:07:29.978Z,0.00
2022-11-09T04:08:04.975Z,0.00
2022-11-09T04:08:40.007Z,0.00
2022-11-09T04:09:15.143Z,0.00
2022-11-09T04:09:50.470Z,0.00
2022-11-09T04:10:25.782Z,0.00
2022-11-09T04:11:00.672Z,0.00
2022-11-09T04:11:36.001Z,0.00
2022-11-09T04:12:11.383Z,0.00
2022-11-09T04:12:46.592Z,0.00
2022-11-09T04:13:22.083Z,0.00
2022-11-09T04:13:56.900Z,0.00
2022-11-09T04:14:32.323Z,0.00
2022-11-09T04:15:07.435Z,0.00
2022-11-09T04:15:42.824Z,0.00
2022-11-09T04:16:17.816Z,0.00
2022-11-09T04:16:53.221Z,0.00
2022-11-09T04:17:28.350Z,0.00
2022-11-09T04:18:03.348Z,0.00
2022-11-09T04:18:38.365Z,0.00
2022-11-09T04:19:13.657Z,0.00
2022-11-09T04:19:48.989Z,0.00
2022-11-09T04:20:24.368Z,0.00
2022-11-09T04:20:59.476Z,0.00
2022-11-09T04:21:34.723Z,0.00
2022-11-09T04:22:10.034Z,0.00
2022-11-09T04:22:45.140Z,0.00
2022-11-09T04:23:20.601Z,0.00
2022-11-09T04:23:55.363Z,0.00
2022-11-09T04:24:30.756Z,0.00
2022-11-09T04:25:05.891Z,0.00
2022-11-09T04:25:40.800Z,0.00
2022-11-09T04:26:16.305Z,0.00
2022-11-09T04:26:51.318Z,0.00
2022-11-09T04:27:26.417Z,0.00
2022-11-09T04:28:01.727Z,0.00
2022-11-09T04:28:36.820Z,0.00
2022-11-09T04:29:11.939Z,0.00
2022-11-09T04:29:47.578Z,0.00
2022-11-09T04:30:22.990Z,0.00
2022-11-09T04:30:58.280Z,0.00
2022-11-09T04:31:33.587Z,0.00
2022-11-09T04:32:08.680Z,0.00
2022-11-09T04:32:43.782Z,0.00
2022-11-09T04:33:19.238Z,0.00
2022-11-09T04:33:54.083Z,0.00
2022-11-09T04:34:29.482Z,0.00
2022-11-09T04:35:04.590Z,0.00
2022-11-09T04:35:39.831Z,0.00
2022-11-09T04:36:14.823Z,0.00
2022-11-09T04:36:50.219Z,0.00
2022-11-09T04:37:25.520Z,0.00
2022-11-09T04:38:00.728Z,0.00
2022-11-09T04:38:35.846Z,0.00
2022-11-09T04:39:11.275Z,0.00
2022-11-09T04:39:46.568Z,0.00
2022-11-09T04:40:21.948Z,0.00
2022-11-09T04:40:57.467Z,0.00
2022-11-09T04:41:32.772Z,0.00
2022-11-09T04:42:08.180Z,0.00
2022-11-09T04:42:43.270Z,0.00
2022-11-09T04:43:18.725Z,0.00
2022-11-09T04:43:53.586Z,0.00
2022-11-09T04:44:28.811Z,0.00
2022-11-09T04:45:04.068Z,0.00
2022-11-09T04:45:39.057Z,0.00
2022-11-09T04:46:14.499Z,0.00
2022-11-09T04:46:49.800Z,0.00
2022-11-09T04:47:24.806Z,0.00
2022-11-09T04:48:00.327Z,0.00
2022-11-09T04:48:35.434Z,0.00
2022-11-09T04:49:10.853Z,0.00
2022-11-09T04:49:46.036Z,0.00
2022-11-09T04:50:21.245Z,0.00
2022-11-09T04:50:56.444Z,0.00
2022-11-09T04:51:31.690Z,0.00
2022-11-09T04:52:07.604Z,0.00
2022-11-09T04:52:42.601Z,0.00
2022-11-09T04:53:18.023Z,0.00
2022-11-09T04:53:53.428Z,0.00
2022-11-09T04:54:28.829Z,0.00
2022-11-09T04:55:03.934Z,0.00
2022-11-09T04:55:39.252Z,0.00
2022-11-09T04:56:14.445Z,0.00
2022-11-09T04:56:49.562Z,0.00
2022-11-09T04:57:25.144Z,0.00
2022-11-09T04:58:00.759Z,0.00
2022-11-09T04:58:36.060Z,0.00
2022-11-09T04:59:11.164Z,0.00
2022-11-09T04:59:46.368Z,0.00
2022-11-09T05:00:21.881Z,0.00
2022-11-09T05:00:57.085Z,0.00
2022-11-09T05:01:32.200Z,0.00
2022-11-09T05:02:07.640Z,0.00
2022-11-09T05:02:42.854Z,0.00
2022-11-09T05:03:18.276Z,0.00
2022-11-09T05:03:53.699Z,0.00
2022-11-09T05:04:28.804Z,0.00
2022-11-09T05:05:04.122Z,0.00
2022-11-09T05:05:41.659Z,0.00
2022-11-09T05:06:14.338Z,0.00
2022-11-09T05:06:49.858Z,0.00
2022-11-09T05:07:25.050Z,0.00
2022-11-09T05:08:00.342Z,0.00
2022-11-09T05:08:35.755Z,0.00
2022-11-09T05:09:11.268Z,0.00
2022-11-09T05:09:46.878Z,0.00
2022-11-09T05:10:22.080Z,0.00
2022-11-09T05:10:57.503Z,0.00
2022-11-09T05:11:32.682Z,0.00
2022-11-09T05:12:07.917Z,0.00
2022-11-09T05:12:45.861Z,0.00
2022-11-09T05:13:18.741Z,0.00
2022-11-09T05:13:53.862Z,0.00
2022-11-09T05:14:36.015Z,0.00
2022-11-09T05:15:11.487Z,0.00
2022-11-09T05:15:46.705Z,0.00
2022-11-09T05:16:22.028Z,0.00
2022-11-09T05:16:57.252Z,0.00
2022-11-09T05:17:32.828Z,0.00
2022-11-09T05:18:08.125Z,0.00
2022-11-09T05:18:43.537Z,0.00
2022-11-09T05:19:18.784Z,0.00
2022-11-09T05:19:55.954Z,0.00
2022-11-09T05:20:29.307Z,0.00
2022-11-09T05:21:04.630Z,0.00
2022-11-09T05:21:39.866Z,0.00
2022-11-09T05:22:14.897Z,0.00
2022-11-09T05:22:50.120Z,0.00
2022-11-09T05:23:25.244Z,0.00
2022-11-09T05:24:00.750Z,0.00
2022-11-09T05:24:35.694Z,0.00
2022-11-09T05:25:11.140Z,0.00
2022-11-09T05:25:46.644Z,0.00
2022-11-09T05:26:22.081Z,0.00
2022-11-09T05:26:57.218Z,0.00
2022-11-09T05:27:32.640Z,0.00
2022-11-09T05:28:09.570Z,0.00
2022-11-09T05:28:43.031Z,0.00
2022-11-09T05:29:18.264Z,0.00
2022-11-09T05:29:53.459Z,0.00
2022-11-09T05:30:28.775Z,0.00
2022-11-09T05:31:03.913Z,0.00
2022-11-09T05:31:39.286Z,0.00
2022-11-09T05:32:14.606Z,0.00
2022-11-09T05:32:49.808Z,0.00
2022-11-09T05:33:25.222Z,0.00
2022-11-09T05:34:00.843Z,0.00
2022-11-09T05:34:36.063Z,0.00
2022-11-09T05:35:11.304Z,0.00
2022-11-09T05:35:46.516Z,0.00
2022-11-09T05:36:21.523Z,0.00
2022-11-09T05:37:02.281Z,0.00
2022-11-09T05:37:32.067Z,0.00
2022-11-09T05:38:07.166Z,0.00
2022-11-09T05:38:42.582Z,0.00
2022-11-09T05:39:18.011Z,0.00
2022-11-09T05:39:52.924Z,0.00
2022-11-09T05:40:28.362Z,0.00
2022-11-09T05:41:03.371Z,0.00
2022-11-09T05:41:38.669Z,0.00
2022-11-09T05:42:13.988Z,0.00
2022-11-09T05:42:49.402Z,0.00
2022-11-09T05:43:24.807Z,0.00
2022-11-09T05:44:00.199Z,0.00
2022-11-09T05:44:35.333Z,0.00
2022-11-09T05:45:40.874Z,0.00
2022-11-09T05:45:46.258Z,0.00
2022-11-09T05:46:21.563Z,0.00
2022-11-09T05:46:56.860Z,0.00
2022-11-09T05:47:32.183Z,0.00
2022-11-09T05:48:07.485Z,0.00
2022-11-09T05:48:42.717Z,0.00
2022-11-09T05:49:18.115Z,0.00
2022-11-09T05:49:53.348Z,0.00
2022-11-09T05:50:28.459Z,0.00
2022-11-09T05:51:03.886Z,0.00
2022-11-09T05:51:38.996Z,0.00
2022-11-09T05:52:14.088Z,0.00
2022-11-09T05:52:49.415Z,0.00
2022-11-09T05:53:24.735Z,0.00
2022-11-09T05:53:59.751Z,0.00
2022-11-09T05:54:35.060Z,0.00
2022-11-09T05:55:10.497Z,0.00
2022-11-09T05:55:45.797Z,0.00
2022-11-09T05:56:21.303Z,0.00
2022-11-09T05:56:56.619Z,0.00
2022-11-09T05:57:31.816Z,0.00
2022-11-09T05:58:07.332Z,0.00
2022-11-09T05:58:42.660Z,0.00
2022-11-09T05:59:17.984Z,0.00
2022-11-09T05:59:53.272Z,0.00
2022-11-09T06:00:28.503Z,0.00
2022-11-09T06:01:03.714Z,0.00
2022-11-09T06:01:39.012Z,0.00
2022-11-09T06:02:14.305Z,0.00
2022-11-09T06:02:49.620Z,0.00
2022-11-09T06:03:25.041Z,0.00
2022-11-09T06:04:00.157Z,0.00
2022-11-09T06:04:35.156Z,0.00
2022-11-09T06:05:10.684Z,0.00
2022-11-09T06:05:46.327Z,0.00
2022-11-09T06:06:21.543Z,0.00
2022-11-09T06:06:56.884Z,0.00
2022-11-09T06:07:32.252Z,0.00
2022-11-09T06:08:07.360Z,0.00
2022-11-09T06:08:42.762Z,0.00
2022-11-09T06:09:18.163Z,0.00
2022-11-09T06:09:53.375Z,0.00
2022-11-09T06:10:28.568Z,0.00
2022-11-09T06:11:03.696Z,0.00
2022-11-09T06:11:38.808Z,0.00
2022-11-09T06:12:14.356Z,0.00
2022-11-09T06:12:49.778Z,0.00
2022-11-09T06:13:24.661Z,0.00
2022-11-09T06:14:00.213Z,0.00
2022-11-09T06:14:35.326Z,0.00
2022-11-09T06:15:10.675Z,0.00
2022-11-09T06:15:45.800Z,0.00
2022-11-09T06:16:21.228Z,4.00
2022-11-09T06:16:56.450Z,4.00
2022-11-09T06:17:31.568Z,4.00
2022-11-09T06:18:06.793Z,0.00
2022-11-09T06:18:42.111Z,0.00
2022-11-09T06:19:17.427Z,4.00
2022-11-09T06:19:52.820Z,4.00
2022-11-09T06:20:28.014Z,4.00
2022-11-09T06:21:03.237Z,4.00
2022-11-09T06:21:38.843Z,8.00
2022-11-09T06:22:14.062Z,4.00
2022-11-09T06:22:49.804Z,4.00
2022-11-09T06:23:24.823Z,8.00
2022-11-09T06:24:00.335Z,4.00
2022-11-09T06:24:35.437Z,8.00
2022-11-09T06:25:10.379Z,8.00
2022-11-09T06:25:45.587Z,8.00
2022-11-09T06:26:21.026Z,8.00
2022-11-09T06:26:56.147Z,12.00
2022-11-09T06:27:31.263Z,8.00
2022-11-09T06:28:06.482Z,12.00
2022-11-09T06:28:41.785Z,12.00
2022-11-09T06:29:16.901Z,16.00
2022-11-09T06:29:52.213Z,16.00
2022-11-09T06:30:27.527Z,16.00
2022-11-09T06:31:02.455Z,20.00
2022-11-09T06:31:37.568Z,20.00
2022-11-09T06:32:12.618Z,24.00
2022-11-09T06:32:47.831Z,20.00
2022-11-09T06:33:23.582Z,24.00
2022-11-09T06:33:58.807Z,24.00
2022-11-09T06:34:33.817Z,28.00
2022-11-09T06:35:09.814Z,24.00
2022-11-09T06:35:45.130Z,28.00
2022-11-09T06:36:20.442Z,28.00
2022-11-09T06:36:55.901Z,32.00
2022-11-09T06:37:31.051Z,32.00
2022-11-09T06:38:06.193Z,32.00
2022-11-09T06:38:41.485Z,36.00
2022-11-09T06:39:16.592Z,36.00
2022-11-09T06:39:51.775Z,40.00
2022-11-09T06:40:26.972Z,40.00
2022-11-09T06:41:02.386Z,40.00
2022-11-09T06:41:37.588Z,40.00
2022-11-09T06:42:13.074Z,48.00
2022-11-09T06:42:48.524Z,48.00
2022-11-09T06:43:23.730Z,48.00
2022-11-09T06:43:58.941Z,48.00
2022-11-09T06:44:34.234Z,52.00
2022-11-09T06:45:09.531Z,52.00
2022-11-09T06:45:44.933Z,56.00
2022-11-09T06:46:20.280Z,56.00
2022-11-09T06:46:55.768Z,60.00
2022-11-09T06:47:31.023Z,60.00
2022-11-09T06:48:06.303Z,60.00
2022-11-09T06:48:41.609Z,64.00
2022-11-09T06:49:16.921Z,68.00
2022-11-09T06:49:52.220Z,68.00
2022-11-09T06:50:27.647Z,68.00
2022-11-09T06:51:02.791Z,72.00
2022-11-09T06:51:38.664Z,72.00
2022-11-09T06:52:14.209Z,76.00
2022-11-09T06:52:49.580Z,76.00
2022-11-09T06:53:24.916Z,80.00
2022-11-09T06:53:59.927Z,80.00
2022-11-09T06:54:35.475Z,80.00
2022-11-09T06:55:10.774Z,84.00
2022-11-09T06:55:50.619Z,88.00
2022-11-09T06:56:21.674Z,88.00
2022-11-09T06:56:56.776Z,92.00
2022-11-09T06:57:31.780Z,96.00
2022-11-09T06:58:06.924Z,96.00
2022-11-09T06:58:42.037Z,100.00
2022-11-09T06:59:17.236Z,100.00
2022-11-09T06:59:52.243Z,104.00
2022-11-09T07:00:27.642Z,104.00
2022-11-09T07:01:03.060Z,108.00
2022-11-09T07:01:38.720Z,112.00
2022-11-09T07:02:13.956Z,112.00
2022-11-09T07:02:49.287Z,116.00
2022-11-09T07:03:25.004Z,116.00
2022-11-09T07:04:00.486Z,120.00
2022-11-09T07:04:35.471Z,120.00
2022-11-09T07:05:10.805Z,120.00
2022-11-09T07:05:46.319Z,124.00
2022-11-09T07:06:21.808Z,128.00
2022-11-09T07:06:56.808Z,128.00
2022-11-09T07:07:32.145Z,124.00
2022-11-09T07:08:07.468Z,128.00
2022-11-09T07:08:43.240Z,132.00
2022-11-09T07:09:18.454Z,132.00
2022-11-09T07:09:53.655Z,136.00
2022-11-09T07:10:29.175Z,140.00
2022-11-09T07:11:04.586Z,140.00
2022-11-09T07:11:39.886Z,144.00
2022-11-09T07:12:15.181Z,144.00
2022-11-09T07:12:50.621Z,148.00
2022-11-09T07:13:25.829Z,152.00
2022-11-09T07:14:00.939Z,152.00
2022-11-09T07:14:36.148Z,156.00
2022-11-09T07:15:11.149Z,156.00
2022-11-09T07:15:46.457Z,160.00
2022-11-09T07:16:21.855Z,164.00
2022-11-09T07:16:57.159Z,164.00
2022-11-09T07:17:32.183Z,172.00
2022-11-09T07:18:07.473Z,176.00
2022-11-09T07:18:42.977Z,176.00
2022-11-09T07:19:18.094Z,184.00
2022-11-09T07:19:53.533Z,192.00
2022-11-09T07:20:29.073Z,188.00
2022-11-09T07:21:04.277Z,192.00
2022-11-09T07:21:39.513Z,192.00
2022-11-09T07:22:14.926Z,196.00
2022-11-09T07:22:50.049Z,196.00
2022-11-09T07:23:25.369Z,200.00
2022-11-09T07:24:00.571Z,200.00
2022-11-09T07:24:36.239Z,200.00
2022-11-09T07:25:11.657Z,200.00
2022-11-09T07:25:46.979Z,208.00
2022-11-09T07:26:22.266Z,208.00
2022-11-09T07:26:57.682Z,216.00
2022-11-09T07:27:33.011Z,228.00
2022-11-09T07:28:08.104Z,232.00
2022-11-09T07:28:43.524Z,236.00
2022-11-09T07:29:18.739Z,244.00
2022-11-09T07:29:53.776Z,248.00
2022-11-09T07:30:29.220Z,256.00
2022-11-09T07:31:04.387Z,264.00
2022-11-09T07:31:39.406Z,280.00
2022-11-09T07:32:14.814Z,300.00
2022-11-09T07:33:26.276Z,328.00
2022-11-09T07:34:01.266Z,344.00
2022-11-09T07:34:36.652Z,348.00
2022-11-09T07:35:12.085Z,360.00
2022-11-09T07:35:47.691Z,372.00
2022-11-09T07:36:23.008Z,384.00
2022-11-09T07:36:58.207Z,376.00
2022-11-09T07:37:33.221Z,364.00
2022-11-09T07:38:08.635Z,356.00
2022-11-09T07:38:44.020Z,348.00
2022-11-09T07:39:19.027Z,336.00
2022-11-09T07:39:54.623Z,360.00
2022-11-09T07:40:30.585Z,368.00
2022-11-09T07:41:05.573Z,376.00
2022-11-09T07:41:40.679Z,404.00
2022-11-09T07:42:15.982Z,404.00
2022-11-09T07:42:51.383Z,416.00
2022-11-09T07:43:26.419Z,356.00
2022-11-09T07:44:01.863Z,356.00
2022-11-09T07:44:37.045Z,364.00
2022-11-09T07:45:12.155Z,376.00
2022-11-09T07:45:47.261Z,408.00